createdAt,value
2022-12-05T00:01:20.741Z,73.47
2022-12-05T00:03:48.436Z,74.95
2022-12-05T00:06:16.785Z,69.60
2022-12-05T00:08:44.081Z,83.47
2022-12-05T00:11:12.590Z,63.80
2022-12-05T00:13:40.985Z,70.05
2022-12-05T00:16:09.715Z,72.43
2022-12-05T00:18:37.298Z,63.08
2022-12-05T00:21:04.703Z,71.65
2022-12-05T00:23:31.958Z,60.00
2022-12-05T00:26:02.090Z,62.33
2022-12-05T00:28:29.265Z,59.28
2022-12-05T00:30:56.504Z,66.55
2022-12-05T00:33:23.675Z,59.40
2022-12-05T00:35:50.930Z,59.20
2022-12-05T00:38:18.124Z,58.45
2022-12-05T00:40:45.243Z,71.45
2022-12-05T00:43:12.389Z,49.75
2022-12-05T00:45:39.579Z,58.65
2022-12-05T00:48:06.779Z,51.95
2022-12-05T00:50:33.951Z,64.55
2022-12-05T00:53:01.102Z,54.50
2022-12-05T00:55:28.233Z,61.53
2022-12-05T00:57:55.418Z,51.97
2022-12-05T01:00:22.554Z,50.67
2022-12-05T01:02:51.111Z,54.72
2022-12-05T01:05:18.371Z,60.17
2022-12-05T01:07:45.623Z,55.80
2022-12-05T01:10:12.890Z,57.22
2022-12-05T01:12:40.001Z,52.72
2022-12-05T01:15:07.524Z,57.50
2022-12-05T01:17:35.961Z,56.35
2022-12-05T01:20:03.625Z,52.80
2022-12-05T01:22:30.776Z,58.30
2022-12-05T01:24:58.247Z,50.95
2022-12-05T01:27:25.441Z,43.20
2022-12-05T01:29:52.669Z,57.00
2022-12-05T01:32:20.017Z,54.08
2022-12-05T01:34:47.342Z,54.88
2022-12-05T01:37:14.572Z,56.38
2022-12-05T01:39:41.700Z,55.90
2022-12-05T01:42:08.907Z,58.10
2022-12-05T01:44:35.970Z,59.40
2022-12-05T01:47:03.119Z,56.17
2022-12-05T01:49:40.850Z,46.80
2022-12-05T01:52:20.319Z,46.08
2022-12-05T01:54:48.744Z,51.90
2022-12-05T01:57:16.279Z,49.58
2022-12-05T01:59:46.292Z,53.15
2022-12-05T02:02:14.158Z,49.70
2022-12-05T02:04:50.787Z,54.72
2022-12-05T02:07:18.521Z,53.28
2022-12-05T02:09:46.530Z,53.50
2022-12-05T02:12:13.870Z,51.25
2022-12-05T02:14:44.245Z,47.33
2022-12-05T02:17:11.380Z,54.88
2022-12-05T02:20:00.711Z,54.97
2022-12-05T02:22:27.952Z,58.67
2022-12-05T02:25:01.139Z,56.38
2022-12-05T02:27:31.376Z,56.58
2022-12-05T02:30:02.881Z,61.90
2022-12-05T02:32:45.476Z,54.78
2022-12-05T02:35:12.710Z,52.72
2022-12-05T02:37:44.022Z,62.67
2022-12-05T02:40:25.214Z,63.25
2022-12-05T02:42:57.268Z,59.45
2022-12-05T02:45:26.179Z,63.67
2022-12-05T02:47:54.359Z,58.13
2022-12-05T02:50:25.948Z,50.25
2022-12-05T02:52:53.960Z,50.17
2022-12-05T02:55:21.514Z,60.10
2022-12-05T02:57:51.618Z,49.33
2022-12-05T03:00:18.895Z,62.55
2022-12-05T03:02:46.082Z,60.00
2022-12-05T03:05:22.634Z,56.05
2022-12-05T03:07:50.961Z,66.20
2022-12-05T03:10:19.919Z,64.40
2022-12-05T03:12:51.782Z,63.65
2022-12-05T03:15:20.847Z,73.30
2022-12-05T03:17:52.029Z,91.35
2022-12-05T03:20:25.274Z,67.20
2022-12-05T03:22:55.395Z,73.00
2022-12-05T03:25:24.899Z,70.00
2022-12-05T03:27:52.118Z,68.03
2022-12-05T03:30:20.827Z,74.45
2022-12-05T03:32:51.085Z,83.22
2022-12-05T03:35:28.377Z,71.40
2022-12-05T03:38:01.679Z,66.53
2022-12-05T03:40:37.938Z,85.32
2022-12-05T03:43:09.137Z,76.40
2022-12-05T03:45:39.410Z,68.25
2022-12-05T03:48:11.064Z,80.43
2022-12-05T03:50:40.798Z,76.38
2022-12-05T03:53:19.568Z,67.80
2022-12-05T03:55:49.942Z,76.95
2022-12-05T03:58:24.965Z,71.38
2022-12-05T04:00:54.018Z,64.82
2022-12-05T04:03:27.434Z,58.97
2022-12-05T04:05:59.877Z,59.08
2022-12-05T04:08:29.857Z,67.22
2022-12-05T04:11:00.109Z,61.58
2022-12-05T04:13:27.267Z,65.50
2022-12-05T04:16:16.429Z,61.38
2022-12-05T04:18:48.280Z,53.15
2022-12-05T04:21:35.146Z,65.00
2022-12-05T04:24:21.050Z,63.60
2022-12-05T04:26:51.461Z,63.58
2022-12-05T04:29:22.854Z,58.78
2022-12-05T04:31:53.027Z,58.70
2022-12-05T04:34:22.183Z,53.58
2022-12-05T04:36:53.836Z,62.72
2022-12-05T04:39:42.238Z,56.15
2022-12-05T04:42:10.898Z,56.72
2022-12-05T04:44:43.090Z,52.13
2022-12-05T04:47:11.578Z,55.95
2022-12-05T04:49:39.695Z,59.15
2022-12-05T04:52:09.040Z,50.63
2022-12-05T04:54:39.356Z,54.70
2022-12-05T04:57:26.796Z,54.00
2022-12-05T04:59:54.245Z,54.22
2022-12-05T05:02:25.234Z,47.33
2022-12-05T05:04:53.951Z,52.53
2022-12-05T05:07:21.305Z,52.00
2022-12-05T05:09:48.421Z,56.40
2022-12-05T05:12:18.987Z,49.28
2022-12-05T05:14:46.663Z,51.38
2022-12-05T05:17:13.882Z,54.55
2022-12-05T05:19:41.108Z,57.67
2022-12-05T05:22:08.247Z,52.30
2022-12-05T05:24:35.409Z,52.67
2022-12-05T05:27:02.554Z,52.38
2022-12-05T05:29:29.759Z,51.20
2022-12-05T05:31:56.908Z,55.65
2022-12-05T05:34:26.170Z,54.20
2022-12-05T05:36:53.551Z,52.88
2022-12-05T05:39:20.769Z,60.75
2022-12-05T05:41:48.035Z,51.38
2022-12-05T05:44:15.183Z,54.80
2022-12-05T05:46:42.437Z,44.72
2022-12-05T05:49:10.945Z,47.78
2022-12-05T05:51:38.253Z,48.35
2022-12-05T05:54:05.451Z,48.58
2022-12-05T05:56:32.645Z,48.25
2022-12-05T05:59:02.247Z,46.00
2022-12-05T06:01:29.836Z,46.85
2022-12-05T06:03:57.201Z,52.75
2022-12-05T06:06:26.166Z,49.58
2022-12-05T06:08:54.760Z,49.08
2022-12-05T06:11:26.341Z,58.92
2022-12-05T06:13:57.406Z,48.42
2022-12-05T06:16:24.597Z,49.03
2022-12-05T06:18:52.772Z,51.35
2022-12-05T06:21:19.980Z,50.38
2022-12-05T06:23:47.283Z,48.22
2022-12-05T06:26:16.428Z,49.78
2022-12-05T06:28:44.584Z,48.80
2022-12-05T06:31:16.614Z,46.92
2022-12-05T06:33:44.267Z,48.80
2022-12-05T06:36:13.553Z,42.83
2022-12-05T06:38:42.482Z,41.80
2022-12-05T06:41:11.529Z,42.05
2022-12-05T06:43:38.670Z,42.90
2022-12-05T06:46:06.829Z,39.75
2022-12-05T06:48:34.330Z,57.17
2022-12-05T06:51:01.610Z,44.50
2022-12-05T06:53:29.109Z,36.65
2022-12-05T06:55:57.741Z,33.67
2022-12-05T06:58:25.242Z,42.72
2022-12-05T07:01:11.354Z,37.85
2022-12-05T07:03:38.656Z,34.78
2022-12-05T07:06:06.811Z,35.10
2022-12-05T07:08:34.806Z,40.67
2022-12-05T07:11:02.301Z,34.22
2022-12-05T07:13:29.504Z,34.55
2022-12-05T07:15:58.443Z,31.98
2022-12-05T07:18:25.771Z,33.40
2022-12-05T07:21:11.624Z,33.00
2022-12-05T07:23:39.975Z,37.50
2022-12-05T07:26:11.977Z,34.83
2022-12-05T07:28:39.432Z,40.15
2022-12-05T07:31:07.768Z,30.67
2022-12-05T07:33:34.981Z,34.35
2022-12-05T07:36:02.931Z,38.20
2022-12-05T07:38:30.322Z,32.17
2022-12-05T07:40:57.879Z,31.42
2022-12-05T07:43:25.367Z,30.27
2022-12-05T07:45:52.579Z,29.58
2022-12-05T07:48:19.847Z,31.10
2022-12-05T07:50:47.184Z,27.00
2022-12-05T07:53:14.647Z,25.40
2022-12-05T07:55:42.180Z,24.35
2022-12-05T07:58:09.397Z,23.77
2022-12-05T08:00:36.615Z,27.33
2022-12-05T08:03:03.978Z,20.75
2022-12-05T08:05:31.209Z,23.55
2022-12-05T08:07:58.464Z,25.33
2022-12-05T08:10:25.758Z,24.42
2022-12-05T08:12:52.998Z,26.52
2022-12-05T08:15:20.190Z,23.60
2022-12-05T08:17:47.320Z,24.17
2022-12-05T08:20:14.671Z,22.73
2022-12-05T08:22:41.944Z,19.88
2022-12-05T08:25:09.374Z,17.05
2022-12-05T08:27:36.564Z,19.80
2022-12-05T08:30:03.985Z,20.05
2022-12-05T08:32:31.190Z,19.80
2022-12-05T08:34:58.409Z,22.77
2022-12-05T08:37:25.783Z,19.77
2022-12-05T08:39:52.940Z,19.50
2022-12-05T08:42:20.207Z,22.20
2022-12-05T08:44:47.534Z,22.90
2022-12-05T08:47:14.676Z,21.50
2022-12-05T08:49:41.836Z,24.98
2022-12-05T08:52:09.033Z,22.83
2022-12-05T08:54:36.230Z,23.15
2022-12-05T08:57:03.407Z,25.05
2022-12-05T08:59:30.637Z,25.77
2022-12-05T09:01:57.878Z,24.17
2022-12-05T09:04:25.422Z,24.15
2022-12-05T09:06:52.683Z,25.13
2022-12-05T09:09:19.940Z,25.27
2022-12-05T09:11:50.858Z,20.20
2022-12-05T09:14:18.871Z,17.63
2022-12-05T09:16:46.841Z,19.00
2022-12-05T09:19:18.617Z,22.67
2022-12-05T09:21:46.295Z,18.93
2022-12-05T09:24:14.210Z,16.35
2022-12-05T09:26:41.461Z,17.77
2022-12-05T09:29:14.220Z,16.42
2022-12-05T09:31:43.458Z,23.38
2022-12-05T09:34:10.861Z,20.08
2022-12-05T09:36:38.387Z,26.05
2022-12-05T09:39:06.525Z,18.77
2022-12-05T09:42:06.018Z,18.50
2022-12-05T09:44:45.419Z,15.10
2022-12-05T09:47:16.085Z,15.43
2022-12-05T09:49:48.432Z,17.33
2022-12-05T09:52:23.332Z,16.55
2022-12-05T09:54:52.052Z,18.65
2022-12-05T09:57:21.605Z,16.25
2022-12-05T09:59:48.824Z,15.43
2022-12-05T10:02:18.756Z,18.90
2022-12-05T10:04:49.138Z,22.55
2022-12-05T10:07:24.849Z,13.05
2022-12-05T10:10:14.530Z,16.30
2022-12-05T10:12:51.765Z,15.95
2022-12-05T10:15:31.863Z,18.52
2022-12-05T10:17:59.118Z,19.20
2022-12-05T10:20:31.874Z,19.77
2022-12-05T10:23:48.756Z,18.63
2022-12-05T10:26:12.027Z,19.05
2022-12-05T10:28:42.812Z,19.73
2022-12-05T10:31:14.206Z,21.75
2022-12-05T10:33:44.116Z,21.23
2022-12-05T10:36:12.840Z,20.73
2022-12-05T10:38:40.675Z,20.73
2022-12-05T10:41:09.214Z,22.50
2022-12-05T10:43:38.056Z,18.98
2022-12-05T10:46:07.838Z,16.13
2022-12-05T10:48:40.647Z,14.85
2022-12-05T10:51:08.449Z,14.40
2022-12-05T10:53:45.036Z,13.43
2022-12-05T10:56:31.301Z,14.93
2022-12-05T10:58:59.181Z,14.60
2022-12-05T11:01:28.055Z,15.95
2022-12-05T11:03:59.854Z,14.95
2022-12-05T11:06:28.377Z,14.35
2022-12-05T11:09:04.300Z,13.68
2022-12-05T11:11:33.479Z,16.88
2022-12-05T11:14:00.630Z,15.52
2022-12-05T11:16:30.545Z,16.55
2022-12-05T11:18:57.810Z,14.18
2022-12-05T11:21:25.098Z,13.70
2022-12-05T11:23:52.285Z,13.38
2022-12-05T11:26:34.749Z,14.35
2022-12-05T11:29:02.394Z,17.08
2022-12-05T11:31:31.310Z,14.80
2022-12-05T11:34:17.366Z,16.45
2022-12-05T11:36:46.112Z,13.95
2022-12-05T11:39:14.396Z,11.23
2022-12-05T11:41:41.683Z,11.85
2022-12-05T11:44:08.959Z,13.07
2022-12-05T11:46:42.049Z,13.10
2022-12-05T11:49:18.469Z,13.38
2022-12-05T11:51:52.351Z,17.30
2022-12-05T11:54:56.864Z,19.60
2022-12-05T11:57:22.153Z,20.17
2022-12-05T12:00:03.008Z,16.23
2022-12-05T12:02:30.263Z,15.25
2022-12-05T12:04:57.949Z,13.52
2022-12-05T12:07:28.143Z,16.10
2022-12-05T12:10:11.559Z,16.30
2022-12-05T12:12:57.464Z,16.63
2022-12-05T12:15:35.138Z,22.67
2022-12-05T12:18:02.593Z,16.20
2022-12-05T12:20:39.607Z,18.63
2022-12-05T12:23:09.725Z,16.65
2022-12-05T12:25:56.049Z,15.98
2022-12-05T12:28:41.874Z,16.52
2022-12-05T12:31:11.992Z,20.10
2022-12-05T12:33:42.396Z,24.40
2022-12-05T12:36:15.484Z,18.00
2022-12-05T12:38:52.469Z,16.05
2022-12-05T12:41:37.947Z,18.65
2022-12-05T12:44:24.118Z,20.75
2022-12-05T12:46:51.394Z,19.48
2022-12-05T12:49:33.935Z,14.68
2022-12-05T12:52:05.730Z,15.48
2022-12-05T12:55:03.349Z,15.67
2022-12-05T12:57:43.579Z,19.05
2022-12-05T13:00:10.772Z,17.92
2022-12-05T13:02:51.421Z,19.60
2022-12-05T13:05:33.803Z,30.98
2022-12-05T13:08:05.584Z,23.90
2022-12-05T13:10:37.961Z,19.27
2022-12-05T13:13:06.737Z,16.83
2022-12-05T13:15:41.118Z,18.20
2022-12-05T13:18:12.094Z,14.15
2022-12-05T13:20:40.340Z,13.70
2022-12-05T13:23:09.229Z,16.73
2022-12-05T13:25:41.009Z,29.45
2022-12-05T13:28:22.722Z,23.13
2022-12-05T13:31:01.264Z,15.88
2022-12-05T13:33:44.574Z,13.45
2022-12-05T13:36:31.668Z,13.30
2022-12-05T13:39:22.471Z,15.90
2022-12-05T13:42:10.669Z,14.23
2022-12-05T13:44:40.953Z,12.45
2022-12-05T13:47:15.115Z,12.85
2022-12-05T13:49:44.697Z,12.88
2022-12-05T13:52:24.273Z,12.82
2022-12-05T13:55:11.790Z,11.45
2022-12-05T13:58:04.307Z,18.50
2022-12-05T14:00:37.287Z,12.57
2022-12-05T14:03:15.993Z,10.98
2022-12-05T14:05:46.592Z,9.70
2022-12-05T14:08:32.011Z,11.32
2022-12-05T14:10:59.201Z,11.88
2022-12-05T14:13:30.202Z,10.98
2022-12-05T14:16:17.472Z,13.68
2022-12-05T14:18:51.344Z,11.00
2022-12-05T14:21:25.703Z,12.25
2022-12-05T14:23:59.148Z,11.93
2022-12-05T14:26:32.465Z,14.63
2022-12-05T14:29:15.011Z,13.65
2022-12-05T14:32:04.286Z,13.25
2022-12-05T14:34:33.589Z,13.88
2022-12-05T14:37:09.840Z,12.68
2022-12-05T14:39:37.082Z,12.48
2022-12-05T14:42:06.271Z,21.38
2022-12-05T14:44:33.912Z,14.10
2022-12-05T14:47:03.319Z,13.18
2022-12-05T14:49:38.530Z,15.30
2022-12-05T14:52:12.179Z,15.65
2022-12-05T14:54:40.348Z,14.55
2022-12-05T14:57:16.543Z,19.70
2022-12-05T14:59:56.183Z,20.77
2022-12-05T15:02:27.092Z,17.85
2022-12-05T15:05:01.448Z,19.25
2022-12-05T15:07:35.394Z,14.27
2022-12-05T15:10:02.739Z,16.17
2022-12-05T15:12:37.522Z,14.52
2022-12-05T15:15:07.904Z,16.23
2022-12-05T15:17:39.581Z,19.50
2022-12-05T15:20:15.323Z,18.73
2022-12-05T15:22:42.643Z,20.70
2022-12-05T15:25:26.783Z,18.23
2022-12-05T15:28:05.730Z,16.17
2022-12-05T15:30:35.213Z,17.55
2022-12-05T15:33:03.079Z,18.88
2022-12-05T15:35:32.955Z,17.20
2022-12-05T15:38:02.738Z,16.65
2022-12-05T15:40:37.321Z,18.40
2022-12-05T15:43:24.530Z,30.70
2022-12-05T15:45:51.876Z,26.73
2022-12-05T15:48:22.843Z,24.08
2022-12-05T15:50:51.750Z,23.58
2022-12-05T15:53:19.125Z,22.90
2022-12-05T15:55:52.268Z,23.70
2022-12-05T15:58:26.407Z,21.45
2022-12-05T16:00:56.215Z,30.35
2022-12-05T16:03:43.620Z,36.33
2022-12-05T16:06:16.360Z,30.63
2022-12-05T16:11:11.053Z,28.25
2022-12-05T16:13:43.046Z,34.35
2022-12-05T16:16:15.115Z,26.15
2022-12-05T16:18:49.370Z,23.38
2022-12-05T16:21:37.717Z,25.17
2022-12-05T16:24:16.244Z,27.95
2022-12-05T16:26:43.787Z,30.58
2022-12-05T16:29:46.993Z,28.45
2022-12-05T16:32:24.466Z,28.80
2022-12-05T16:34:51.923Z,28.90
2022-12-05T16:37:29.496Z,26.15
2022-12-05T16:39:57.058Z,25.85
2022-12-05T16:42:29.005Z,25.08
2022-12-05T16:45:03.751Z,27.85
2022-12-05T16:47:46.578Z,28.90
2022-12-05T16:50:24.346Z,26.90
2022-12-05T16:52:51.611Z,27.13
2022-12-05T16:55:18.864Z,39.03
2022-12-05T16:57:46.078Z,38.67
2022-12-05T17:00:15.245Z,31.75
2022-12-05T17:02:42.593Z,31.70
2022-12-05T17:05:13.850Z,33.33
2022-12-05T17:07:41.127Z,31.98
2022-12-05T17:10:08.717Z,34.65
2022-12-05T17:12:36.279Z,32.30
2022-12-05T17:15:03.482Z,37.33
2022-12-05T17:17:30.655Z,51.95
2022-12-05T17:19:57.968Z,40.55
2022-12-05T17:22:26.980Z,53.72
2022-12-05T17:24:54.732Z,48.05
2022-12-05T17:27:21.931Z,53.70
2022-12-05T17:29:49.065Z,44.92
2022-12-05T17:32:16.372Z,45.22
2022-12-05T17:34:43.573Z,38.85
2022-12-05T17:37:10.766Z,33.92
2022-12-05T17:39:37.853Z,36.30
2022-12-05T17:42:05.078Z,38.33
2022-12-05T17:44:32.334Z,41.42
2022-12-05T17:47:04.470Z,38.45
2022-12-05T17:49:34.794Z,42.58
2022-12-05T17:54:51.350Z,40.92
2022-12-05T17:57:18.705Z,39.20
2022-12-05T17:59:46.193Z,35.03
2022-12-05T18:02:13.461Z,34.05
2022-12-05T18:04:40.695Z,33.10
2022-12-05T18:07:10.013Z,28.80
2022-12-05T18:09:37.199Z,35.17
2022-12-05T18:12:04.552Z,34.22
2022-12-05T18:14:35.863Z,39.03
2022-12-05T18:17:03.833Z,38.15
2022-12-05T18:19:31.070Z,33.38
2022-12-05T18:21:58.181Z,34.22
2022-12-05T18:24:25.411Z,37.03
2022-12-05T18:26:52.746Z,34.47
2022-12-05T18:29:19.869Z,34.65
2022-12-05T18:31:48.497Z,52.88
2022-12-05T18:34:16.017Z,49.63
2022-12-05T18:36:43.413Z,44.35
2022-12-05T18:39:13.883Z,50.50
2022-12-05T18:41:42.022Z,46.17
2022-12-05T18:44:10.116Z,57.20
2022-12-05T18:46:37.898Z,53.03
2022-12-05T18:49:05.338Z,53.03
2022-12-05T18:51:32.644Z,51.90
2022-12-05T18:53:59.996Z,49.22
2022-12-05T18:56:28.946Z,49.55
2022-12-05T18:59:02.412Z,50.53
2022-12-05T19:01:30.847Z,49.80
2022-12-05T19:03:59.010Z,52.33
2022-12-05T19:06:28.081Z,48.55
2022-12-05T19:08:56.064Z,53.75
2022-12-05T19:11:23.810Z,49.60
2022-12-05T19:13:50.941Z,42.80
2022-12-05T19:16:18.570Z,46.35
2022-12-05T19:18:47.067Z,46.88
2022-12-05T19:21:14.548Z,42.92
2022-12-05T19:23:41.746Z,43.83
2022-12-05T19:26:09.220Z,44.47
2022-12-05T19:28:37.323Z,43.40
2022-12-05T19:31:08.585Z,46.30
2022-12-05T19:33:36.952Z,42.97
2022-12-05T19:36:10.047Z,61.67
2022-12-05T19:38:37.545Z,78.40
2022-12-05T19:41:05.603Z,65.38
2022-12-05T19:43:33.860Z,67.03
2022-12-05T19:46:05.053Z,53.17
2022-12-05T19:48:32.593Z,51.83
2022-12-05T19:51:00.605Z,57.45
2022-12-05T19:53:31.809Z,66.80
2022-12-05T19:56:02.541Z,62.30
2022-12-05T19:58:31.837Z,63.72
2022-12-05T20:01:07.424Z,51.70
2022-12-05T20:03:34.663Z,49.20
2022-12-05T20:06:02.104Z,59.00
2022-12-05T20:08:29.367Z,76.18
2022-12-05T20:10:56.482Z,66.70
2022-12-05T20:13:46.027Z,69.93
2022-12-05T20:16:11.593Z,64.28
2022-12-05T20:18:42.623Z,61.40
2022-12-05T20:21:11.088Z,61.42
2022-12-05T20:23:38.426Z,56.45
2022-12-05T20:26:07.675Z,53.00
2022-12-05T20:28:35.320Z,61.60
2022-12-05T20:31:05.498Z,62.60
2022-12-05T20:33:33.012Z,62.42
2022-12-05T20:36:05.287Z,61.67
2022-12-05T20:38:32.422Z,60.63
2022-12-05T20:41:03.482Z,62.80
2022-12-05T20:43:30.914Z,64.63
2022-12-05T20:46:03.933Z,57.88
2022-12-05T20:48:31.247Z,60.55
2022-12-05T20:51:04.233Z,64.95
2022-12-05T20:53:33.130Z,60.67
2022-12-05T20:56:10.780Z,62.50
2022-12-05T20:58:38.637Z,65.53
2022-12-05T21:01:07.463Z,57.47
2022-12-05T21:03:34.792Z,52.60
2022-12-05T21:06:07.423Z,54.40
2022-12-05T21:11:01.703Z,56.55
2022-12-05T21:13:28.899Z,54.22
2022-12-05T21:15:56.197Z,57.10
2022-12-05T21:18:23.449Z,56.03
2022-12-05T21:20:57.208Z,58.00
2022-12-05T21:23:24.371Z,55.63
2022-12-05T21:25:51.601Z,49.67
2022-12-05T21:28:18.799Z,55.95
2022-12-05T21:30:45.926Z,53.78
2022-12-05T21:33:13.155Z,49.03
2022-12-05T21:35:40.390Z,43.13
2022-12-05T21:38:07.750Z,43.22
2022-12-05T21:40:34.872Z,50.10
2022-12-05T21:43:02.032Z,46.60
2022-12-05T21:45:29.278Z,45.55
2022-12-05T21:47:56.476Z,38.22
2022-12-05T21:50:23.650Z,44.03
2022-12-05T21:52:50.845Z,44.80
2022-12-05T21:55:18.110Z,43.22
2022-12-05T21:57:45.318Z,39.35
2022-12-05T22:00:12.693Z,58.95
2022-12-05T22:02:39.947Z,36.10
2022-12-05T22:05:07.462Z,34.97
2022-12-05T22:07:34.772Z,42.88
2022-12-05T22:10:02.152Z,44.63
2022-12-05T22:12:29.659Z,42.47
2022-12-05T22:14:56.754Z,43.53
2022-12-05T22:17:24.001Z,40.15
2022-12-05T22:19:51.113Z,41.80
2022-12-05T22:22:18.265Z,40.88
2022-12-05T22:24:45.410Z,32.33
2022-12-05T22:27:12.531Z,29.33
2022-12-05T22:29:39.733Z,28.52
2022-12-05T22:32:06.940Z,28.85
2022-12-05T22:34:34.074Z,28.95
2022-12-05T22:37:01.242Z,28.10
2022-12-05T22:39:28.431Z,24.77
2022-12-05T22:41:56.849Z,21.35
2022-12-05T22:44:24.012Z,18.00
2022-12-05T22:46:51.265Z,19.98
2022-12-05T22:49:23.727Z,21.27
2022-12-05T22:51:52.370Z,21.80
2022-12-05T22:54:19.458Z,19.85
2022-12-05T22:56:46.558Z,21.30
2022-12-05T22:59:14.816Z,22.67
2022-12-05T23:01:42.140Z,22.77
2022-12-05T23:04:12.324Z,25.70
2022-12-05T23:06:40.053Z,23.45
2022-12-05T23:09:08.318Z,23.58
2022-12-05T23:11:35.638Z,24.63
2022-12-05T23:14:02.994Z,20.05
2022-12-05T23:16:31.977Z,21.45
2022-12-05T23:19:00.595Z,23.13
2022-12-05T23:21:32.273Z,26.33
2022-12-05T23:24:00.787Z,24.08
2022-12-05T23:26:29.239Z,23.38
2022-12-05T23:28:56.411Z,21.67
2022-12-05T23:31:23.945Z,22.58
2022-12-05T23:33:51.854Z,20.52
2022-12-05T23:36:19.465Z,20.75
2022-12-05T23:38:46.819Z,20.92
2022-12-05T23:41:21.384Z,19.63
2022-12-05T23:43:49.413Z,21.98
2022-12-05T23:46:17.266Z,21.92
2022-12-05T23:48:44.828Z,20.95
2022-12-05T23:51:13.322Z,24.50
2022-12-05T23:53:41.329Z,20.52
2022-12-05T23:56:09.866Z,20.75
2022-12-05T23:58:36.998Z,19.75
